sensor_id;sensor_type;location;lat;lon;timestamp;P1;durP1;ratioP1;P2;durP2;ratioP2
24813;SDS011;12904;50.088;11.414;2022-11-20T00:00:52;50.38;;;22.48;;
24813;SDS011;12904;50.088;11.414;2022-11-20T00:03:17;41.78;;;20.42;;
24813;SDS011;12904;50.088;11.414;2022-11-20T00:05:43;52.42;;;23.60;;
24813;SDS011;12904;50.088;11.414;2022-11-20T00:08:09;52.95;;;24.25;;
24813;SDS011;12904;50.088;11.414;2022-11-20T00:10:36;53.92;;;26.90;;
24813;SDS011;12904;50.088;11.414;2022-11-20T00:13:02;54.95;;;26.00;;
24813;SDS011;12904;50.088;11.414;2022-11-20T00:15:28;47.17;;;24.00;;
24813;SDS011;12904;50.088;11.414;2022-11-20T00:17:54;54.13;;;23.60;;
24813;SDS011;12904;50.088;11.414;2022-11-20T00:20:20;56.95;;;24.73;;
24813;SDS011;12904;50.088;11.414;2022-11-20T00:22:46;66.13;;;30.73;;
24813;SDS011;12904;50.088;11.414;2022-11-20T00:25:12;56.05;;;26.50;;
24813;SDS011;12904;50.088;11.414;2022-11-20T00:27:38;48.33;;;23.33;;
24813;SDS011;12904;50.088;11.414;2022-11-20T00:30:04;48.75;;;23.63;;
24813;SDS011;12904;50.088;11.414;2022-11-20T00:32:31;47.50;;;24.05;;
24813;SDS011;12904;50.088;11.414;2022-11-20T00:34:56;46.53;;;23.17;;
24813;SDS011;12904;50.088;11.414;2022-11-20T00:37:22;44.30;;;22.08;;
24813;SDS011;12904;50.088;11.414;2022-11-20T00:39:48;64.03;;;27.88;;
24813;SDS011;12904;50.088;11.414;2022-11-20T00:42:13;56.33;;;25.63;;
24813;SDS011;12904;50.088;11.414;2022-11-20T00:44:39;53.20;;;24.05;;
24813;SDS011;12904;50.088;11.414;2022-11-20T00:47:05;49.75;;;23.45;;
24813;SDS011;12904;50.088;11.414;2022-11-20T00:49:30;47.42;;;22.33;;
24813;SDS011;12904;50.088;11.414;2022-11-20T00:51:56;51.67;;;21.77;;
24813;SDS011;12904;50.088;11.414;2022-11-20T00:54:22;51.13;;;23.45;;
24813;SDS011;12904;50.088;11.414;2022-11-20T00:56:47;48.92;;;20.83;;
24813;SDS011;12904;50.088;11.414;2022-11-20T00:59:13;46.17;;;20.48;;
24813;SDS011;12904;50.088;11.414;2022-11-20T01:01:38;62.45;;;27.83;;
24813;SDS011;12904;50.088;11.414;2022-11-20T01:04:04;47.40;;;22.83;;
24813;SDS011;12904;50.088;11.414;2022-11-20T01:06:31;47.53;;;22.17;;
24813;SDS011;12904;50.088;11.414;2022-11-20T01:09:00;45.92;;;20.98;;
24813;SDS011;12904;50.088;11.414;2022-11-20T01:11:29;42.80;;;22.08;;
24813;SDS011;12904;50.088;11.414;2022-11-20T01:13:57;54.65;;;21.63;;
24813;SDS011;12904;50.088;11.414;2022-11-20T01:16:31;50.08;;;23.02;;
24813;SDS011;12904;50.088;11.414;2022-11-20T01:18:59;49.42;;;22.95;;
24813;SDS011;12904;50.088;11.414;2022-11-20T01:21:31;56.85;;;27.55;;
24813;SDS011;12904;50.088;11.414;2022-11-20T01:24:02;74.00;;;29.38;;
24813;SDS011;12904;50.088;11.414;2022-11-20T01:26:32;103.05;;;44.63;;
24813;SDS011;12904;50.088;11.414;2022-11-20T01:31:32;72.05;;;25.50;;
24813;SDS011;12904;50.088;11.414;2022-11-20T01:34:06;71.38;;;25.35;;
24813;SDS011;12904;50.088;11.414;2022-11-20T01:36:35;78.32;;;25.50;;
24813;SDS011;12904;50.088;11.414;2022-11-20T01:39:06;129.93;;;28.70;;
24813;SDS011;12904;50.088;11.414;2022-11-20T01:41:35;105.95;;;28.83;;
24813;SDS011;12904;50.088;11.414;2022-11-20T01:44:21;132.90;;;26.95;;
24813;SDS011;12904;50.088;11.414;2022-11-20T01:47:06;103.97;;;29.20;;
24813;SDS011;12904;50.088;11.414;2022-11-20T01:49:36;82.78;;;28.38;;
24813;SDS011;12904;50.088;11.414;2022-11-20T01:52:07;76.82;;;28.25;;
24813;SDS011;12904;50.088;11.414;2022-11-20T01:54:38;76.88;;;27.00;;
24813;SDS011;12904;50.088;11.414;2022-11-20T01:57:11;77.95;;;26.73;;
24813;SDS011;12904;50.088;11.414;2022-11-20T01:59:39;120.53;;;27.42;;
24813;SDS011;12904;50.088;11.414;2022-11-20T02:04:35;86.15;;;28.55;;
24813;SDS011;12904;50.088;11.414;2022-11-20T02:07:01;123.45;;;30.38;;
24813;SDS011;12904;50.088;11.414;2022-11-20T02:09:29;134.10;;;31.23;;
24813;SDS011;12904;50.088;11.414;2022-11-20T02:11:55;112.95;;;28.65;;
24813;SDS011;12904;50.088;11.414;2022-11-20T02:14:21;114.35;;;30.25;;
24813;SDS011;12904;50.088;11.414;2022-11-20T02:16:49;95.78;;;27.77;;
24813;SDS011;12904;50.088;11.414;2022-11-20T02:22:18;155.85;;;29.67;;
24813;SDS011;12904;50.088;11.414;2022-11-20T02:24:46;78.00;;;26.80;;
24813;SDS011;12904;50.088;11.414;2022-11-20T02:27:14;96.63;;;26.15;;
24813;SDS011;12904;50.088;11.414;2022-11-20T02:34:54;241.88;;;32.90;;
24813;SDS011;12904;50.088;11.414;2022-11-20T02:37:20;126.72;;;26.42;;
24813;SDS011;12904;50.088;11.414;2022-11-20T02:39:47;116.18;;;25.13;;
24813;SDS011;12904;50.088;11.414;2022-11-20T02:42:15;64.90;;;25.58;;
24813;SDS011;12904;50.088;11.414;2022-11-20T02:44:40;58.22;;;23.70;;
24813;SDS011;12904;50.088;11.414;2022-11-20T02:47:06;58.88;;;23.67;;
24813;SDS011;12904;50.088;11.414;2022-11-20T02:49:32;55.50;;;23.00;;
24813;SDS011;12904;50.088;11.414;2022-11-20T02:51:58;49.05;;;21.52;;
24813;SDS011;12904;50.088;11.414;2022-11-20T02:54:23;48.00;;;21.13;;
24813;SDS011;12904;50.088;11.414;2022-11-20T02:56:49;58.67;;;22.77;;
24813;SDS011;12904;50.088;11.414;2022-11-20T02:59:15;69.75;;;24.73;;
24813;SDS011;12904;50.088;11.414;2022-11-20T03:01:41;57.50;;;23.48;;
24813;SDS011;12904;50.088;11.414;2022-11-20T03:04:06;62.03;;;22.73;;
24813;SDS011;12904;50.088;11.414;2022-11-20T03:06:32;54.78;;;22.40;;
24813;SDS011;12904;50.088;11.414;2022-11-20T03:08:58;52.55;;;22.65;;
24813;SDS011;12904;50.088;11.414;2022-11-20T03:11:23;54.45;;;22.92;;
24813;SDS011;12904;50.088;11.414;2022-11-20T03:13:49;49.92;;;20.67;;
24813;SDS011;12904;50.088;11.414;2022-11-20T03:16:16;46.10;;;20.58;;
24813;SDS011;12904;50.088;11.414;2022-11-20T03:18:43;51.97;;;21.48;;
24813;SDS011;12904;50.088;11.414;2022-11-20T03:21:10;44.90;;;20.60;;
24813;SDS011;12904;50.088;11.414;2022-11-20T03:23:37;50.03;;;20.85;;
24813;SDS011;12904;50.088;11.414;2022-11-20T03:26:07;44.20;;;19.05;;
24813;SDS011;12904;50.088;11.414;2022-11-20T03:28:36;50.58;;;21.15;;
24813;SDS011;12904;50.088;11.414;2022-11-20T03:31:09;43.78;;;19.35;;
24813;SDS011;12904;50.088;11.414;2022-11-20T03:33:36;50.38;;;21.17;;
24813;SDS011;12904;50.088;11.414;2022-11-20T03:36:03;54.30;;;23.80;;
24813;SDS011;12904;50.088;11.414;2022-11-20T03:38:30;45.70;;;20.60;;
24813;SDS011;12904;50.088;11.414;2022-11-20T03:41:03;46.40;;;20.10;;
24813;SDS011;12904;50.088;11.414;2022-11-20T03:43:30;48.22;;;21.05;;
24813;SDS011;12904;50.088;11.414;2022-11-20T03:45:56;46.00;;;19.30;;
24813;SDS011;12904;50.088;11.414;2022-11-20T03:48:21;45.55;;;20.50;;
24813;SDS011;12904;50.088;11.414;2022-11-20T03:50:47;47.28;;;22.00;;
24813;SDS011;12904;50.088;11.414;2022-11-20T03:53:13;46.67;;;21.67;;
24813;SDS011;12904;50.088;11.414;2022-11-20T03:55:39;50.63;;;21.83;;
24813;SDS011;12904;50.088;11.414;2022-11-20T03:58:05;48.80;;;20.90;;
24813;SDS011;12904;50.088;11.414;2022-11-20T04:00:31;43.45;;;19.23;;
24813;SDS011;12904;50.088;11.414;2022-11-20T04:03:00;51.28;;;19.85;;
24813;SDS011;12904;50.088;11.414;2022-11-20T04:05:27;47.88;;;20.92;;
24813;SDS011;12904;50.088;11.414;2022-11-20T04:07:52;51.97;;;22.48;;
24813;SDS011;12904;50.088;11.414;2022-11-20T04:10:18;52.05;;;23.15;;
24813;SDS011;12904;50.088;11.414;2022-11-20T04:12:44;50.65;;;21.50;;
24813;SDS011;12904;50.088;11.414;2022-11-20T04:15:10;51.78;;;20.13;;
24813;SDS011;12904;50.088;11.414;2022-11-20T04:17:36;46.13;;;20.83;;
24813;SDS011;12904;50.088;11.414;2022-11-20T04:20:02;44.17;;;21.15;;
24813;SDS011;12904;50.088;11.414;2022-11-20T04:22:28;47.05;;;20.58;;
24813;SDS011;12904;50.088;11.414;2022-11-20T04:24:54;45.25;;;21.17;;
24813;SDS011;12904;50.088;11.414;2022-11-20T04:27:20;44.78;;;19.45;;
24813;SDS011;12904;50.088;11.414;2022-11-20T04:29:45;54.10;;;22.92;;
24813;SDS011;12904;50.088;11.414;2022-11-20T04:32:11;51.30;;;21.20;;
24813;SDS011;12904;50.088;11.414;2022-11-20T04:34:37;49.60;;;20.30;;
24813;SDS011;12904;50.088;11.414;2022-11-20T04:37:02;48.58;;;21.90;;
24813;SDS011;12904;50.088;11.414;2022-11-20T04:39:28;47.20;;;21.65;;
24813;SDS011;12904;50.088;11.414;2022-11-20T04:41:54;45.00;;;19.85;;
24813;SDS011;12904;50.088;11.414;2022-11-20T04:44:38;56.08;;;23.23;;
24813;SDS011;12904;50.088;11.414;2022-11-20T04:47:03;51.35;;;22.52;;
24813;SDS011;12904;50.088;11.414;2022-11-20T04:49:29;57.33;;;23.20;;
24813;SDS011;12904;50.088;11.414;2022-11-20T04:51:56;51.17;;;21.98;;
24813;SDS011;12904;50.088;11.414;2022-11-20T04:54:22;49.85;;;22.38;;
24813;SDS011;12904;50.088;11.414;2022-11-20T04:56:48;48.08;;;21.52;;
24813;SDS011;12904;50.088;11.414;2022-11-20T04:59:14;45.20;;;20.80;;
24813;SDS011;12904;50.088;11.414;2022-11-20T05:01:40;43.25;;;21.55;;
24813;SDS011;12904;50.088;11.414;2022-11-20T05:04:05;46.10;;;20.50;;
24813;SDS011;12904;50.088;11.414;2022-11-20T05:06:31;45.15;;;21.25;;
24813;SDS011;12904;50.088;11.414;2022-11-20T05:08:57;43.90;;;19.77;;
24813;SDS011;12904;50.088;11.414;2022-11-20T05:11:23;44.90;;;19.85;;
24813;SDS011;12904;50.088;11.414;2022-11-20T05:13:49;41.47;;;19.13;;
24813;SDS011;12904;50.088;11.414;2022-11-20T05:16:20;44.50;;;20.00;;
24813;SDS011;12904;50.088;11.414;2022-11-20T05:18:47;39.72;;;19.77;;
24813;SDS011;12904;50.088;11.414;2022-11-20T05:21:14;41.10;;;18.13;;
24813;SDS011;12904;50.088;11.414;2022-11-20T05:23:40;45.78;;;20.67;;
24813;SDS011;12904;50.088;11.414;2022-11-20T05:26:07;43.97;;;20.30;;
24813;SDS011;12904;50.088;11.414;2022-11-20T05:28:37;42.47;;;19.67;;
24813;SDS011;12904;50.088;11.414;2022-11-20T05:31:36;38.63;;;18.73;;
24813;SDS011;12904;50.088;11.414;2022-11-20T05:33:55;37.67;;;18.67;;
24813;SDS011;12904;50.088;11.414;2022-11-20T05:36:21;35.55;;;17.80;;
24813;SDS011;12904;50.088;11.414;2022-11-20T05:38:47;39.17;;;18.35;;
24813;SDS011;12904;50.088;11.414;2022-11-20T05:41:13;42.58;;;18.95;;
24813;SDS011;12904;50.088;11.414;2022-11-20T05:43:41;37.28;;;19.02;;
24813;SDS011;12904;50.088;11.414;2022-11-20T05:46:09;45.22;;;18.95;;
24813;SDS011;12904;50.088;11.414;2022-11-20T05:48:36;41.88;;;19.58;;
24813;SDS011;12904;50.088;11.414;2022-11-20T05:51:03;44.58;;;20.85;;
24813;SDS011;12904;50.088;11.414;2022-11-20T05:53:31;50.55;;;22.25;;
24813;SDS011;12904;50.088;11.414;2022-11-20T05:55:59;57.10;;;24.45;;
24813;SDS011;12904;50.088;11.414;2022-11-20T05:58:25;48.60;;;22.35;;
24813;SDS011;12904;50.088;11.414;2022-11-20T06:00:51;44.97;;;20.30;;
24813;SDS011;12904;50.088;11.414;2022-11-20T06:03:17;43.33;;;19.52;;
24813;SDS011;12904;50.088;11.414;2022-11-20T06:05:43;42.35;;;19.95;;
24813;SDS011;12904;50.088;11.414;2022-11-20T06:08:08;45.20;;;21.08;;
24813;SDS011;12904;50.088;11.414;2022-11-20T06:10:34;44.42;;;20.08;;
24813;SDS011;12904;50.088;11.414;2022-11-20T06:12:59;46.03;;;24.30;;
24813;SDS011;12904;50.088;11.414;2022-11-20T06:15:25;52.15;;;23.20;;
24813;SDS011;12904;50.088;11.414;2022-11-20T06:17:54;41.17;;;20.23;;
24813;SDS011;12904;50.088;11.414;2022-11-20T06:20:20;41.78;;;19.42;;
24813;SDS011;12904;50.088;11.414;2022-11-20T06:22:47;40.33;;;19.40;;
24813;SDS011;12904;50.088;11.414;2022-11-20T06:25:12;37.83;;;19.77;;
24813;SDS011;12904;50.088;11.414;2022-11-20T06:27:38;47.33;;;20.45;;
24813;SDS011;12904;50.088;11.414;2022-11-20T06:30:04;42.95;;;21.55;;
24813;SDS011;12904;50.088;11.414;2022-11-20T06:32:30;41.08;;;17.63;;
24813;SDS011;12904;50.088;11.414;2022-11-20T06:34:56;45.80;;;19.60;;
24813;SDS011;12904;50.088;11.414;2022-11-20T06:37:21;47.15;;;18.05;;
24813;SDS011;12904;50.088;11.414;2022-11-20T06:39:47;37.13;;;18.05;;
24813;SDS011;12904;50.088;11.414;2022-11-20T06:42:13;36.47;;;17.25;;
24813;SDS011;12904;50.088;11.414;2022-11-20T06:44:38;40.40;;;19.98;;
24813;SDS011;12904;50.088;11.414;2022-11-20T06:47:04;41.78;;;19.45;;
24813;SDS011;12904;50.088;11.414;2022-11-20T06:49:29;40.42;;;17.00;;
24813;SDS011;12904;50.088;11.414;2022-11-20T06:51:55;42.40;;;19.13;;
24813;SDS011;12904;50.088;11.414;2022-11-20T06:54:21;32.20;;;16.88;;
24813;SDS011;12904;50.088;11.414;2022-11-20T06:56:47;42.72;;;17.92;;
24813;SDS011;12904;50.088;11.414;2022-11-20T06:59:13;33.60;;;17.25;;
24813;SDS011;12904;50.088;11.414;2022-11-20T07:01:38;34.47;;;16.35;;
24813;SDS011;12904;50.088;11.414;2022-11-20T07:04:04;32.00;;;15.98;;
24813;SDS011;12904;50.088;11.414;2022-11-20T07:06:29;34.05;;;16.90;;
24813;SDS011;12904;50.088;11.414;2022-11-20T07:08:55;40.70;;;17.85;;
24813;SDS011;12904;50.088;11.414;2022-11-20T07:11:21;41.80;;;20.55;;
24813;SDS011;12904;50.088;11.414;2022-11-20T07:13:47;61.95;;;26.88;;
24813;SDS011;12904;50.088;11.414;2022-11-20T07:16:12;51.05;;;22.23;;
24813;SDS011;12904;50.088;11.414;2022-11-20T07:18:38;43.72;;;19.13;;
24813;SDS011;12904;50.088;11.414;2022-11-20T07:21:04;42.10;;;20.35;;
24813;SDS011;12904;50.088;11.414;2022-11-20T07:23:31;40.05;;;20.92;;
24813;SDS011;12904;50.088;11.414;2022-11-20T07:25:57;41.40;;;18.58;;
24813;SDS011;12904;50.088;11.414;2022-11-20T07:28:23;34.35;;;18.13;;
24813;SDS011;12904;50.088;11.414;2022-11-20T07:30:52;35.88;;;18.63;;
24813;SDS011;12904;50.088;11.414;2022-11-20T07:33:18;35.42;;;17.85;;
24813;SDS011;12904;50.088;11.414;2022-11-20T07:35:44;31.08;;;17.00;;
24813;SDS011;12904;50.088;11.414;2022-11-20T07:38:10;34.55;;;18.38;;
24813;SDS011;12904;50.088;11.414;2022-11-20T07:40:36;32.63;;;18.30;;
24813;SDS011;12904;50.088;11.414;2022-11-20T07:43:01;33.08;;;18.42;;
24813;SDS011;12904;50.088;11.414;2022-11-20T07:45:27;39.05;;;18.38;;
24813;SDS011;12904;50.088;11.414;2022-11-20T07:47:52;34.20;;;17.83;;
24813;SDS011;12904;50.088;11.414;2022-11-20T07:50:19;32.85;;;17.05;;
24813;SDS011;12904;50.088;11.414;2022-11-20T07:52:45;32.85;;;16.02;;
24813;SDS011;12904;50.088;11.414;2022-11-20T07:55:11;29.88;;;17.10;;
24813;SDS011;12904;50.088;11.414;2022-11-20T07:57:37;30.63;;;16.13;;
24813;SDS011;12904;50.088;11.414;2022-11-20T08:00:03;30.27;;;16.20;;
24813;SDS011;12904;50.088;11.414;2022-11-20T08:02:30;31.48;;;17.05;;
24813;SDS011;12904;50.088;11.414;2022-11-20T08:04:55;36.90;;;18.25;;
24813;SDS011;12904;50.088;11.414;2022-11-20T08:07:21;32.20;;;17.73;;
24813;SDS011;12904;50.088;11.414;2022-11-20T08:09:47;33.15;;;17.27;;
24813;SDS011;12904;50.088;11.414;2022-11-20T08:12:17;35.90;;;16.20;;
24813;SDS011;12904;50.088;11.414;2022-11-20T08:15:03;31.53;;;16.50;;
24813;SDS011;12904;50.088;11.414;2022-11-20T08:17:29;32.90;;;17.80;;
24813;SDS011;12904;50.088;11.414;2022-11-20T08:19:55;32.88;;;17.75;;
24813;SDS011;12904;50.088;11.414;2022-11-20T08:22:21;34.67;;;17.75;;
24813;SDS011;12904;50.088;11.414;2022-11-20T08:24:46;38.10;;;18.48;;
24813;SDS011;12904;50.088;11.414;2022-11-20T08:27:12;34.78;;;18.00;;
24813;SDS011;12904;50.088;11.414;2022-11-20T08:29:38;40.72;;;19.60;;
24813;SDS011;12904;50.088;11.414;2022-11-20T08:32:04;35.78;;;17.15;;
24813;SDS011;12904;50.088;11.414;2022-11-20T08:34:29;26.67;;;16.60;;
24813;SDS011;12904;50.088;11.414;2022-11-20T08:36:55;34.40;;;17.77;;
24813;SDS011;12904;50.088;11.414;2022-11-20T08:39:21;34.13;;;17.88;;
24813;SDS011;12904;50.088;11.414;2022-11-20T08:41:47;30.48;;;17.50;;
24813;SDS011;12904;50.088;11.414;2022-11-20T08:44:12;34.70;;;17.52;;
24813;SDS011;12904;50.088;11.414;2022-11-20T08:46:39;29.00;;;16.58;;
24813;SDS011;12904;50.088;11.414;2022-11-20T08:49:10;31.55;;;16.60;;
24813;SDS011;12904;50.088;11.414;2022-11-20T08:51:37;33.73;;;17.97;;
24813;SDS011;12904;50.088;11.414;2022-11-20T08:54:04;34.88;;;18.55;;
24813;SDS011;12904;50.088;11.414;2022-11-20T08:56:30;39.05;;;20.50;;
24813;SDS011;12904;50.088;11.414;2022-11-20T08:58:56;32.13;;;18.13;;
24813;SDS011;12904;50.088;11.414;2022-11-20T09:01:22;43.30;;;22.33;;
24813;SDS011;12904;50.088;11.414;2022-11-20T09:03:48;54.38;;;24.33;;
24813;SDS011;12904;50.088;11.414;2022-11-20T09:06:14;44.72;;;21.48;;
24813;SDS011;12904;50.088;11.414;2022-11-20T09:08:40;29.65;;;17.63;;
24813;SDS011;12904;50.088;11.414;2022-11-20T09:11:06;32.45;;;18.88;;
24813;SDS011;12904;50.088;11.414;2022-11-20T09:13:33;29.42;;;17.55;;
24813;SDS011;12904;50.088;11.414;2022-11-20T09:16:01;39.05;;;20.40;;
24813;SDS011;12904;50.088;11.414;2022-11-20T09:18:28;33.28;;;18.77;;
24813;SDS011;12904;50.088;11.414;2022-11-20T09:20:57;31.77;;;18.15;;
24813;SDS011;12904;50.088;11.414;2022-11-20T09:23:24;36.42;;;20.05;;
24813;SDS011;12904;50.088;11.414;2022-11-20T09:25:51;33.85;;;18.65;;
24813;SDS011;12904;50.088;11.414;2022-11-20T09:28:17;30.80;;;16.65;;
24813;SDS011;12904;50.088;11.414;2022-11-20T09:30:43;31.73;;;17.95;;
24813;SDS011;12904;50.088;11.414;2022-11-20T09:33:09;35.58;;;19.23;;
24813;SDS011;12904;50.088;11.414;2022-11-20T09:35:35;37.28;;;20.38;;
24813;SDS011;12904;50.088;11.414;2022-11-20T09:38:07;40.50;;;19.85;;
24813;SDS011;12904;50.088;11.414;2022-11-20T09:40:33;37.60;;;21.38;;
24813;SDS011;12904;50.088;11.414;2022-11-20T09:56:21;42.92;;;23.60;;
24813;SDS011;12904;50.088;11.414;2022-11-20T09:58:48;43.22;;;23.85;;
24813;SDS011;12904;50.088;11.414;2022-11-20T10:01:17;46.80;;;27.17;;
24813;SDS011;12904;50.088;11.414;2022-11-20T10:03:55;42.08;;;23.52;;
24813;SDS011;12904;50.088;11.414;2022-11-20T10:07:24;41.50;;;22.50;;
24813;SDS011;12904;50.088;11.414;2022-11-20T10:09:25;43.58;;;23.02;;
24813;SDS011;12904;50.088;11.414;2022-11-20T10:25:49;43.40;;;22.42;;
24813;SDS011;12904;50.088;11.414;2022-11-20T10:31:08;40.67;;;21.52;;
24813;SDS011;12904;50.088;11.414;2022-11-20T10:33:40;36.55;;;19.83;;
24813;SDS011;12904;50.088;11.414;2022-11-20T10:38:48;36.55;;;19.67;;
24813;SDS011;12904;50.088;11.414;2022-11-20T10:41:21;42.05;;;21.42;;
24813;SDS011;12904;50.088;11.414;2022-11-20T10:46:40;35.83;;;19.10;;
24813;SDS011;12904;50.088;11.414;2022-11-20T10:49:11;34.10;;;18.20;;
24813;SDS011;12904;50.088;11.414;2022-11-20T10:57:00;42.33;;;22.58;;
24813;SDS011;12904;50.088;11.414;2022-11-20T11:02:34;38.47;;;21.25;;
24813;SDS011;12904;50.088;11.414;2022-11-20T11:05:02;42.97;;;22.35;;
24813;SDS011;12904;50.088;11.414;2022-11-20T11:07:45;45.03;;;23.80;;
24813;SDS011;12904;50.088;11.414;2022-11-20T11:10:14;41.60;;;22.88;;
24813;SDS011;12904;50.088;11.414;2022-11-20T11:12:47;43.17;;;22.55;;
24813;SDS011;12904;50.088;11.414;2022-11-20T11:15:29;49.35;;;24.55;;
24813;SDS011;12904;50.088;11.414;2022-11-20T11:17:55;45.55;;;23.48;;
24813;SDS011;12904;50.088;11.414;2022-11-20T11:20:22;48.90;;;24.40;;
24813;SDS011;12904;50.088;11.414;2022-11-20T11:22:50;46.85;;;24.35;;
24813;SDS011;12904;50.088;11.414;2022-11-20T11:25:34;44.83;;;25.60;;
24813;SDS011;12904;50.088;11.414;2022-11-20T11:30:27;48.28;;;25.67;;
24813;SDS011;12904;50.088;11.414;2022-11-20T11:36:05;42.33;;;22.27;;
24813;SDS011;12904;50.088;11.414;2022-11-20T11:38:44;41.03;;;21.00;;
24813;SDS011;12904;50.088;11.414;2022-11-20T11:41:12;41.83;;;22.70;;
24813;SDS011;12904;50.088;11.414;2022-11-20T11:43:49;39.88;;;22.90;;
24813;SDS011;12904;50.088;11.414;2022-11-20T11:46:38;37.53;;;21.80;;
24813;SDS011;12904;50.088;11.414;2022-11-20T11:51:36;39.85;;;22.02;;
24813;SDS011;12904;50.088;11.414;2022-11-20T11:57:28;40.95;;;23.02;;
24813;SDS011;12904;50.088;11.414;2022-11-20T12:00:12;47.33;;;25.20;;
24813;SDS011;12904;50.088;11.414;2022-11-20T12:12:56;46.92;;;24.55;;
24813;SDS011;12904;50.088;11.414;2022-11-20T12:15:30;51.28;;;27.60;;
24813;SDS011;12904;50.088;11.414;2022-11-20T12:17:59;53.55;;;27.80;;
24813;SDS011;12904;50.088;11.414;2022-11-20T12:20:35;44.05;;;23.10;;
24813;SDS011;12904;50.088;11.414;2022-11-20T12:23:18;40.67;;;21.45;;
24813;SDS011;12904;50.088;11.414;2022-11-20T12:25:58;36.25;;;19.85;;
24813;SDS011;12904;50.088;11.414;2022-11-20T12:28:40;36.15;;;20.45;;
24813;SDS011;12904;50.088;11.414;2022-11-20T12:31:59;44.20;;;20.05;;
24813;SDS011;12904;50.088;11.414;2022-11-20T12:34:43;39.30;;;20.67;;
24813;SDS011;12904;50.088;11.414;2022-11-20T12:40:17;46.97;;;23.83;;
24813;SDS011;12904;50.088;11.414;2022-11-20T12:46:12;41.00;;;22.10;;
24813;SDS011;12904;50.088;11.414;2022-11-20T12:49:07;41.85;;;23.40;;
24813;SDS011;12904;50.088;11.414;2022-11-20T12:51:58;45.75;;;23.80;;
24813;SDS011;12904;50.088;11.414;2022-11-20T13:07:44;50.72;;;24.95;;
24813;SDS011;12904;50.088;11.414;2022-11-20T13:15:42;41.95;;;22.98;;
24813;SDS011;12904;50.088;11.414;2022-11-20T13:18:13;35.50;;;19.92;;
24813;SDS011;12904;50.088;11.414;2022-11-20T13:20:43;42.65;;;23.13;;
24813;SDS011;12904;50.088;11.414;2022-11-20T13:25:37;40.08;;;22.15;;
24813;SDS011;12904;50.088;11.414;2022-11-20T13:28:05;34.75;;;21.05;;
24813;SDS011;12904;50.088;11.414;2022-11-20T13:30:52;37.40;;;21.58;;
24813;SDS011;12904;50.088;11.414;2022-11-20T13:36:03;35.15;;;20.40;;
24813;SDS011;12904;50.088;11.414;2022-11-20T13:38:49;45.33;;;23.40;;
24813;SDS011;12904;50.088;11.414;2022-11-20T13:41:52;56.95;;;27.40;;
24813;SDS011;12904;50.088;11.414;2022-11-20T13:47:25;44.17;;;22.58;;
24813;SDS011;12904;50.088;11.414;2022-11-20T13:49:53;45.65;;;23.33;;
24813;SDS011;12904;50.088;11.414;2022-11-20T13:52:34;40.33;;;21.90;;
24813;SDS011;12904;50.088;11.414;2022-11-20T14:00:45;44.40;;;26.48;;
24813;SDS011;12904;50.088;11.414;2022-11-20T14:03:23;46.40;;;25.27;;
24813;SDS011;12904;50.088;11.414;2022-11-20T14:05:56;43.08;;;22.27;;
24813;SDS011;12904;50.088;11.414;2022-11-20T14:08:31;47.40;;;25.88;;
24813;SDS011;12904;50.088;11.414;2022-11-20T14:11:11;44.28;;;22.95;;
24813;SDS011;12904;50.088;11.414;2022-11-20T14:16:31;36.55;;;21.65;;
24813;SDS011;12904;50.088;11.414;2022-11-20T14:19:17;82.22;;;35.05;;
24813;SDS011;12904;50.088;11.414;2022-11-20T14:21:45;49.28;;;25.60;;
24813;SDS011;12904;50.088;11.414;2022-11-20T14:24:11;42.72;;;23.17;;
24813;SDS011;12904;50.088;11.414;2022-11-20T14:26:41;42.10;;;23.15;;
24813;SDS011;12904;50.088;11.414;2022-11-20T14:29:13;45.55;;;24.38;;
24813;SDS011;12904;50.088;11.414;2022-11-20T14:31:39;42.60;;;21.23;;
24813;SDS011;12904;50.088;11.414;2022-11-20T14:34:05;55.47;;;29.13;;
24813;SDS011;12904;50.088;11.414;2022-11-20T14:36:37;41.70;;;21.90;;
24813;SDS011;12904;50.088;11.414;2022-11-20T14:39:03;49.05;;;25.63;;
24813;SDS011;12904;50.088;11.414;2022-11-20T14:41:29;72.18;;;33.35;;
24813;SDS011;12904;50.088;11.414;2022-11-20T14:43:57;46.85;;;23.83;;
24813;SDS011;12904;50.088;11.414;2022-11-20T14:46:24;49.45;;;22.83;;
24813;SDS011;12904;50.088;11.414;2022-11-20T14:48:51;49.47;;;21.55;;
24813;SDS011;12904;50.088;11.414;2022-11-20T14:51:41;54.13;;;25.70;;
24813;SDS011;12904;50.088;11.414;2022-11-20T14:54:19;139.07;;;55.15;;
24813;SDS011;12904;50.088;11.414;2022-11-20T14:56:57;52.85;;;26.08;;
24813;SDS011;12904;50.088;11.414;2022-11-20T14:59:31;65.78;;;30.63;;
24813;SDS011;12904;50.088;11.414;2022-11-20T15:02:03;58.22;;;26.63;;
24813;SDS011;12904;50.088;11.414;2022-11-20T15:04:30;60.90;;;29.45;;
24813;SDS011;12904;50.088;11.414;2022-11-20T15:06:57;68.53;;;32.42;;
24813;SDS011;12904;50.088;11.414;2022-11-20T15:09:24;66.20;;;30.50;;
24813;SDS011;12904;50.088;11.414;2022-11-20T15:11:57;68.53;;;31.60;;
24813;SDS011;12904;50.088;11.414;2022-11-20T15:14:25;54.72;;;27.00;;
24813;SDS011;12904;50.088;11.414;2022-11-20T15:16:52;48.20;;;22.92;;
24813;SDS011;12904;50.088;11.414;2022-11-20T15:19:19;46.25;;;22.23;;
24813;SDS011;12904;50.088;11.414;2022-11-20T15:21:47;39.75;;;19.83;;
24813;SDS011;12904;50.088;11.414;2022-11-20T15:24:14;45.92;;;21.52;;
24813;SDS011;12904;50.088;11.414;2022-11-20T15:26:40;42.45;;;20.85;;
24813;SDS011;12904;50.088;11.414;2022-11-20T15:29:10;40.13;;;18.95;;
24813;SDS011;12904;50.088;11.414;2022-11-20T15:34:10;44.95;;;22.02;;
24813;SDS011;12904;50.088;11.414;2022-11-20T15:36:38;50.55;;;23.38;;
24813;SDS011;12904;50.088;11.414;2022-11-20T15:39:04;38.03;;;19.90;;
24813;SDS011;12904;50.088;11.414;2022-11-20T15:41:32;48.67;;;21.48;;
24813;SDS011;12904;50.088;11.414;2022-11-20T15:43:59;44.40;;;21.67;;
24813;SDS011;12904;50.088;11.414;2022-11-20T15:46:26;53.80;;;23.05;;
24813;SDS011;12904;50.088;11.414;2022-11-20T15:48:56;42.00;;;21.20;;
24813;SDS011;12904;50.088;11.414;2022-11-20T15:51:25;38.10;;;19.52;;
24813;SDS011;12904;50.088;11.414;2022-11-20T15:53:54;38.58;;;19.63;;
24813;SDS011;12904;50.088;11.414;2022-11-20T15:56:20;39.83;;;20.58;;
24813;SDS011;12904;50.088;11.414;2022-11-20T15:58:46;43.60;;;19.98;;
24813;SDS011;12904;50.088;11.414;2022-11-20T16:01:12;41.60;;;20.30;;
24813;SDS011;12904;50.088;11.414;2022-11-20T16:03:40;42.97;;;21.25;;
24813;SDS011;12904;50.088;11.414;2022-11-20T16:06:06;44.35;;;21.33;;
24813;SDS011;12904;50.088;11.414;2022-11-20T16:08:32;38.65;;;20.73;;
24813;SDS011;12904;50.088;11.414;2022-11-20T16:10:58;36.60;;;18.10;;
24813;SDS011;12904;50.088;11.414;2022-11-20T16:13:24;37.30;;;18.98;;
24813;SDS011;12904;50.088;11.414;2022-11-20T16:16:13;51.35;;;23.98;;
24813;SDS011;12904;50.088;11.414;2022-11-20T16:18:48;45.20;;;24.20;;
24813;SDS011;12904;50.088;11.414;2022-11-20T16:21:14;40.92;;;21.83;;